sensor_id;sensor_type;location;lat;lon;timestamp;P1;durP1;ratioP1;P2;durP2;ratioP2
20203;SDS011;10261;49.010;12.034;2022-11-03T00:00:06;12.93;;;7.03;;
20203;SDS011;10261;49.010;12.034;2022-11-03T00:01:13;15.82;;;8.43;;
20203;SDS011;10261;49.010;12.034;2022-11-03T00:02:15;14.82;;;7.60;;
20203;SDS011;10261;49.010;12.034;2022-11-03T00:03:18;13.85;;;7.93;;
20203;SDS011;10261;49.010;12.034;2022-11-03T00:04:21;14.07;;;6.95;;
20203;SDS011;10261;49.010;12.034;2022-11-03T00:05:24;12.00;;;7.70;;
20203;SDS011;10261;49.010;12.034;2022-11-03T00:06:45;13.55;;;8.80;;
20203;SDS011;10261;49.010;12.034;2022-11-03T00:07:50;11.95;;;7.40;;
20203;SDS011;10261;49.010;12.034;2022-11-03T00:08:52;12.70;;;8.20;;
20203;SDS011;10261;49.010;12.034;2022-11-03T00:09:54;10.73;;;8.02;;
20203;SDS011;10261;49.010;12.034;2022-11-03T00:11:00;11.95;;;6.80;;
20203;SDS011;10261;49.010;12.034;2022-11-03T00:12:07;12.75;;;7.57;;
20203;SDS011;10261;49.010;12.034;2022-11-03T00:13:10;13.90;;;7.95;;
20203;SDS011;10261;49.010;12.034;2022-11-03T00:14:12;14.52;;;7.97;;
20203;SDS011;10261;49.010;12.034;2022-11-03T00:15:15;14.40;;;8.00;;
20203;SDS011;10261;49.010;12.034;2022-11-03T00:16:17;14.88;;;7.40;;
20203;SDS011;10261;49.010;12.034;2022-11-03T00:17:20;12.60;;;7.47;;
20203;SDS011;10261;49.010;12.034;2022-11-03T00:18:22;16.75;;;7.75;;
20203;SDS011;10261;49.010;12.034;2022-11-03T00:19:27;12.90;;;7.82;;
20203;SDS011;10261;49.010;12.034;2022-11-03T00:20:28;13.15;;;7.63;;
20203;SDS011;10261;49.010;12.034;2022-11-03T00:21:31;18.13;;;8.32;;
20203;SDS011;10261;49.010;12.034;2022-11-03T00:22:34;13.82;;;7.65;;
20203;SDS011;10261;49.010;12.034;2022-11-03T00:23:37;12.20;;;7.60;;
20203;SDS011;10261;49.010;12.034;2022-11-03T00:24:41;11.95;;;7.20;;
20203;SDS011;10261;49.010;12.034;2022-11-03T00:25:43;8.85;;;6.78;;
20203;SDS011;10261;49.010;12.034;2022-11-03T00:26:46;11.45;;;7.53;;
20203;SDS011;10261;49.010;12.034;2022-11-03T00:27:53;12.43;;;7.05;;
20203;SDS011;10261;49.010;12.034;2022-11-03T00:28:56;9.85;;;7.63;;
20203;SDS011;10261;49.010;12.034;2022-11-03T00:30:01;8.27;;;6.20;;
20203;SDS011;10261;49.010;12.034;2022-11-03T00:31:05;13.48;;;7.15;;
20203;SDS011;10261;49.010;12.034;2022-11-03T00:32:09;10.35;;;6.60;;
20203;SDS011;10261;49.010;12.034;2022-11-03T00:33:11;9.30;;;7.07;;
20203;SDS011;10261;49.010;12.034;2022-11-03T00:34:14;13.15;;;7.15;;
20203;SDS011;10261;49.010;12.034;2022-11-03T00:35:17;15.20;;;8.35;;
20203;SDS011;10261;49.010;12.034;2022-11-03T00:36:21;11.20;;;7.30;;
20203;SDS011;10261;49.010;12.034;2022-11-03T00:37:25;11.30;;;7.25;;
20203;SDS011;10261;49.010;12.034;2022-11-03T00:38:28;9.77;;;6.43;;
20203;SDS011;10261;49.010;12.034;2022-11-03T00:39:30;11.50;;;7.10;;
20203;SDS011;10261;49.010;12.034;2022-11-03T00:40:33;11.35;;;6.85;;
20203;SDS011;10261;49.010;12.034;2022-11-03T00:41:35;10.77;;;6.45;;
20203;SDS011;10261;49.010;12.034;2022-11-03T00:42:38;10.90;;;7.25;;
20203;SDS011;10261;49.010;12.034;2022-11-03T00:43:40;11.57;;;7.25;;
20203;SDS011;10261;49.010;12.034;2022-11-03T00:44:43;12.80;;;7.50;;
20203;SDS011;10261;49.010;12.034;2022-11-03T00:45:45;12.18;;;7.25;;
20203;SDS011;10261;49.010;12.034;2022-11-03T00:46:48;10.35;;;6.35;;
20203;SDS011;10261;49.010;12.034;2022-11-03T00:47:51;10.20;;;7.32;;
20203;SDS011;10261;49.010;12.034;2022-11-03T00:49:15;13.48;;;7.97;;
20203;SDS011;10261;49.010;12.034;2022-11-03T00:50:19;10.55;;;7.53;;
20203;SDS011;10261;49.010;12.034;2022-11-03T00:51:22;12.07;;;7.55;;
20203;SDS011;10261;49.010;12.034;2022-11-03T00:52:26;15.20;;;8.15;;
20203;SDS011;10261;49.010;12.034;2022-11-03T00:53:28;13.48;;;7.78;;
20203;SDS011;10261;49.010;12.034;2022-11-03T00:54:32;13.77;;;7.72;;
20203;SDS011;10261;49.010;12.034;2022-11-03T00:55:35;13.30;;;7.65;;
20203;SDS011;10261;49.010;12.034;2022-11-03T00:56:37;10.68;;;7.15;;
20203;SDS011;10261;49.010;12.034;2022-11-03T00:57:41;14.52;;;8.05;;
20203;SDS011;10261;49.010;12.034;2022-11-03T00:58:43;10.75;;;7.53;;
20203;SDS011;10261;49.010;12.034;2022-11-03T00:59:46;16.40;;;7.38;;
20203;SDS011;10261;49.010;12.034;2022-11-03T01:00:48;13.88;;;8.00;;
20203;SDS011;10261;49.010;12.034;2022-11-03T01:01:51;12.98;;;7.15;;
20203;SDS011;10261;49.010;12.034;2022-11-03T01:02:54;14.85;;;8.07;;
20203;SDS011;10261;49.010;12.034;2022-11-03T01:03:57;12.40;;;8.35;;
20203;SDS011;10261;49.010;12.034;2022-11-03T01:05:19;19.83;;;8.63;;
20203;SDS011;10261;49.010;12.034;2022-11-03T01:06:40;10.23;;;6.82;;
20203;SDS011;10261;49.010;12.034;2022-11-03T01:07:51;13.77;;;8.00;;
20203;SDS011;10261;49.010;12.034;2022-11-03T01:08:54;11.88;;;7.05;;
20203;SDS011;10261;49.010;12.034;2022-11-03T01:09:57;13.68;;;8.52;;
20203;SDS011;10261;49.010;12.034;2022-11-03T01:11:06;12.23;;;7.25;;
20203;SDS011;10261;49.010;12.034;2022-11-03T01:12:28;10.38;;;7.18;;
20203;SDS011;10261;49.010;12.034;2022-11-03T01:13:31;15.55;;;8.25;;
20203;SDS011;10261;49.010;12.034;2022-11-03T01:14:33;14.98;;;8.23;;
20203;SDS011;10261;49.010;12.034;2022-11-03T01:15:38;15.40;;;8.52;;
20203;SDS011;10261;49.010;12.034;2022-11-03T01:16:40;18.20;;;9.45;;
20203;SDS011;10261;49.010;12.034;2022-11-03T01:17:44;18.40;;;9.90;;
20203;SDS011;10261;49.010;12.034;2022-11-03T01:18:46;22.08;;;11.40;;
20203;SDS011;10261;49.010;12.034;2022-11-03T01:19:49;17.92;;;9.32;;
20203;SDS011;10261;49.010;12.034;2022-11-03T01:20:56;17.58;;;9.93;;
20203;SDS011;10261;49.010;12.034;2022-11-03T01:21:59;18.55;;;9.15;;
20203;SDS011;10261;49.010;12.034;2022-11-03T01:23:01;14.90;;;8.95;;
20203;SDS011;10261;49.010;12.034;2022-11-03T01:24:04;15.60;;;8.50;;
20203;SDS011;10261;49.010;12.034;2022-11-03T01:25:07;16.40;;;8.65;;
20203;SDS011;10261;49.010;12.034;2022-11-03T01:26:11;15.90;;;9.35;;
20203;SDS011;10261;49.010;12.034;2022-11-03T01:27:14;15.05;;;9.63;;
20203;SDS011;10261;49.010;12.034;2022-11-03T01:28:19;13.02;;;7.97;;
20203;SDS011;10261;49.010;12.034;2022-11-03T01:29:21;16.98;;;9.23;;
20203;SDS011;10261;49.010;12.034;2022-11-03T01:30:24;16.65;;;8.20;;
20203;SDS011;10261;49.010;12.034;2022-11-03T01:31:26;13.05;;;8.55;;
20203;SDS011;10261;49.010;12.034;2022-11-03T01:32:29;20.60;;;9.52;;
20203;SDS011;10261;49.010;12.034;2022-11-03T01:33:31;14.40;;;8.18;;
20203;SDS011;10261;49.010;12.034;2022-11-03T01:34:35;15.82;;;8.68;;
20203;SDS011;10261;49.010;12.034;2022-11-03T01:35:38;13.88;;;8.90;;
20203;SDS011;10261;49.010;12.034;2022-11-03T01:36:41;14.73;;;8.38;;
20203;SDS011;10261;49.010;12.034;2022-11-03T01:37:45;13.82;;;8.05;;
20203;SDS011;10261;49.010;12.034;2022-11-03T01:38:47;13.90;;;8.23;;
20203;SDS011;10261;49.010;12.034;2022-11-03T01:39:50;15.05;;;7.70;;
20203;SDS011;10261;49.010;12.034;2022-11-03T01:40:52;13.13;;;7.80;;
20203;SDS011;10261;49.010;12.034;2022-11-03T01:41:55;12.60;;;7.85;;
20203;SDS011;10261;49.010;12.034;2022-11-03T01:44:22;13.88;;;7.93;;
20203;SDS011;10261;49.010;12.034;2022-11-03T01:45:33;16.73;;;9.10;;
20203;SDS011;10261;49.010;12.034;2022-11-03T01:46:36;12.45;;;8.13;;
20203;SDS011;10261;49.010;12.034;2022-11-03T01:47:43;10.77;;;7.50;;
20203;SDS011;10261;49.010;12.034;2022-11-03T01:48:47;14.93;;;8.02;;
20203;SDS011;10261;49.010;12.034;2022-11-03T01:49:57;9.75;;;7.00;;
20203;SDS011;10261;49.010;12.034;2022-11-03T01:51:02;9.43;;;6.70;;
20203;SDS011;10261;49.010;12.034;2022-11-03T01:52:08;12.05;;;6.63;;
20203;SDS011;10261;49.010;12.034;2022-11-03T01:53:16;18.52;;;8.65;;
20203;SDS011;10261;49.010;12.034;2022-11-03T01:54:20;10.15;;;6.68;;
20203;SDS011;10261;49.010;12.034;2022-11-03T01:55:26;12.15;;;6.97;;
20203;SDS011;10261;49.010;12.034;2022-11-03T01:56:31;10.85;;;6.75;;
20203;SDS011;10261;49.010;12.034;2022-11-03T01:57:39;10.45;;;6.18;;
20203;SDS011;10261;49.010;12.034;2022-11-03T01:58:45;11.02;;;7.50;;
20203;SDS011;10261;49.010;12.034;2022-11-03T01:59:51;12.27;;;7.50;;
20203;SDS011;10261;49.010;12.034;2022-11-03T02:00:56;15.30;;;7.25;;
20203;SDS011;10261;49.010;12.034;2022-11-03T02:02:01;11.68;;;6.78;;
20203;SDS011;10261;49.010;12.034;2022-11-03T02:03:04;12.55;;;7.10;;
20203;SDS011;10261;49.010;12.034;2022-11-03T02:04:09;14.85;;;6.85;;
20203;SDS011;10261;49.010;12.034;2022-11-03T02:05:14;13.20;;;7.53;;
20203;SDS011;10261;49.010;12.034;2022-11-03T02:06:19;13.57;;;6.93;;
20203;SDS011;10261;49.010;12.034;2022-11-03T02:07:27;13.05;;;7.97;;
20203;SDS011;10261;49.010;12.034;2022-11-03T02:08:35;12.50;;;7.65;;
20203;SDS011;10261;49.010;12.034;2022-11-03T02:09:41;15.13;;;7.72;;
20203;SDS011;10261;49.010;12.034;2022-11-03T02:10:45;10.20;;;7.30;;
20203;SDS011;10261;49.010;12.034;2022-11-03T02:11:48;13.50;;;7.90;;
20203;SDS011;10261;49.010;12.034;2022-11-03T02:13:11;10.82;;;7.18;;
20203;SDS011;10261;49.010;12.034;2022-11-03T02:14:19;9.65;;;6.03;;
20203;SDS011;10261;49.010;12.034;2022-11-03T02:15:21;11.57;;;7.55;;
20203;SDS011;10261;49.010;12.034;2022-11-03T02:16:26;13.38;;;7.45;;
20203;SDS011;10261;49.010;12.034;2022-11-03T02:17:31;12.50;;;7.53;;
20203;SDS011;10261;49.010;12.034;2022-11-03T02:18:35;14.82;;;6.90;;
20203;SDS011;10261;49.010;12.034;2022-11-03T02:19:38;15.25;;;7.38;;
20203;SDS011;10261;49.010;12.034;2022-11-03T02:20:45;13.68;;;8.02;;
20203;SDS011;10261;49.010;12.034;2022-11-03T02:21:54;12.35;;;7.50;;
20203;SDS011;10261;49.010;12.034;2022-11-03T02:23:18;13.00;;;6.82;;
20203;SDS011;10261;49.010;12.034;2022-11-03T02:24:26;10.50;;;6.63;;
20203;SDS011;10261;49.010;12.034;2022-11-03T02:25:42;10.75;;;6.75;;
20203;SDS011;10261;49.010;12.034;2022-11-03T02:26:46;16.73;;;7.50;;
20203;SDS011;10261;49.010;12.034;2022-11-03T02:27:52;15.45;;;7.20;;
20203;SDS011;10261;49.010;12.034;2022-11-03T02:28:55;15.27;;;7.68;;
20203;SDS011;10261;49.010;12.034;2022-11-03T02:29:57;17.98;;;7.90;;
20203;SDS011;10261;49.010;12.034;2022-11-03T02:31:02;13.98;;;7.00;;
20203;SDS011;10261;49.010;12.034;2022-11-03T02:32:13;15.55;;;7.32;;
20203;SDS011;10261;49.010;12.034;2022-11-03T02:33:28;13.48;;;6.57;;
20203;SDS011;10261;49.010;12.034;2022-11-03T02:34:38;12.80;;;7.03;;
20203;SDS011;10261;49.010;12.034;2022-11-03T02:35:44;13.73;;;7.03;;
20203;SDS011;10261;49.010;12.034;2022-11-03T02:36:52;13.18;;;7.05;;
20203;SDS011;10261;49.010;12.034;2022-11-03T02:37:59;14.57;;;7.15;;
20203;SDS011;10261;49.010;12.034;2022-11-03T02:39:08;15.98;;;7.32;;
20203;SDS011;10261;49.010;12.034;2022-11-03T02:40:15;10.35;;;6.32;;
20203;SDS011;10261;49.010;12.034;2022-11-03T02:41:21;12.20;;;7.50;;
20203;SDS011;10261;49.010;12.034;2022-11-03T02:42:25;17.75;;;7.97;;
20203;SDS011;10261;49.010;12.034;2022-11-03T02:43:28;14.10;;;7.03;;
20203;SDS011;10261;49.010;12.034;2022-11-03T02:44:31;13.85;;;7.22;;
20203;SDS011;10261;49.010;12.034;2022-11-03T02:45:34;12.32;;;6.72;;
20203;SDS011;10261;49.010;12.034;2022-11-03T02:46:38;11.98;;;7.25;;
20203;SDS011;10261;49.010;12.034;2022-11-03T02:47:42;14.57;;;7.18;;
20203;SDS011;10261;49.010;12.034;2022-11-03T02:48:46;16.02;;;6.97;;
20203;SDS011;10261;49.010;12.034;2022-11-03T02:49:50;10.00;;;6.40;;
20203;SDS011;10261;49.010;12.034;2022-11-03T02:50:59;13.63;;;7.15;;
20203;SDS011;10261;49.010;12.034;2022-11-03T02:52:04;14.60;;;7.65;;
20203;SDS011;10261;49.010;12.034;2022-11-03T02:53:08;10.75;;;7.30;;
20203;SDS011;10261;49.010;12.034;2022-11-03T02:54:13;12.70;;;7.32;;
20203;SDS011;10261;49.010;12.034;2022-11-03T02:55:22;14.43;;;7.55;;
20203;SDS011;10261;49.010;12.034;2022-11-03T02:56:35;13.18;;;6.45;;
20203;SDS011;10261;49.010;12.034;2022-11-03T02:57:45;10.68;;;6.75;;
20203;SDS011;10261;49.010;12.034;2022-11-03T02:58:52;11.38;;;6.70;;
20203;SDS011;10261;49.010;12.034;2022-11-03T03:00:00;14.52;;;7.15;;
20203;SDS011;10261;49.010;12.034;2022-11-03T03:01:08;13.85;;;7.38;;
20203;SDS011;10261;49.010;12.034;2022-11-03T03:02:21;15.82;;;7.80;;
20203;SDS011;10261;49.010;12.034;2022-11-03T03:03:29;10.38;;;6.38;;
20203;SDS011;10261;49.010;12.034;2022-11-03T03:04:38;12.50;;;7.53;;
20203;SDS011;10261;49.010;12.034;2022-11-03T03:05:41;11.25;;;6.55;;
20203;SDS011;10261;49.010;12.034;2022-11-03T03:06:50;12.45;;;6.88;;
20203;SDS011;10261;49.010;12.034;2022-11-03T03:07:59;14.35;;;6.68;;
20203;SDS011;10261;49.010;12.034;2022-11-03T03:09:05;11.05;;;6.20;;
20203;SDS011;10261;49.010;12.034;2022-11-03T03:10:12;12.43;;;6.85;;
20203;SDS011;10261;49.010;12.034;2022-11-03T03:11:18;13.20;;;7.07;;
20203;SDS011;10261;49.010;12.034;2022-11-03T03:12:40;9.77;;;5.80;;
20203;SDS011;10261;49.010;12.034;2022-11-03T03:13:48;9.55;;;5.78;;
20203;SDS011;10261;49.010;12.034;2022-11-03T03:14:50;9.60;;;6.03;;
20203;SDS011;10261;49.010;12.034;2022-11-03T03:15:59;10.68;;;5.95;;
20203;SDS011;10261;49.010;12.034;2022-11-03T03:17:11;12.15;;;6.53;;
20203;SDS011;10261;49.010;12.034;2022-11-03T03:18:20;12.60;;;5.90;;
20203;SDS011;10261;49.010;12.034;2022-11-03T03:19:29;13.77;;;6.47;;
20203;SDS011;10261;49.010;12.034;2022-11-03T03:20:40;9.60;;;5.82;;
20203;SDS011;10261;49.010;12.034;2022-11-03T03:21:46;12.95;;;6.18;;
20203;SDS011;10261;49.010;12.034;2022-11-03T03:22:54;15.23;;;6.63;;
20203;SDS011;10261;49.010;12.034;2022-11-03T03:24:00;10.00;;;6.25;;
20203;SDS011;10261;49.010;12.034;2022-11-03T03:25:10;11.95;;;6.68;;
20203;SDS011;10261;49.010;12.034;2022-11-03T03:26:17;8.75;;;6.13;;
20203;SDS011;10261;49.010;12.034;2022-11-03T03:27:23;12.77;;;6.47;;
20203;SDS011;10261;49.010;12.034;2022-11-03T03:28:31;11.68;;;6.10;;
20203;SDS011;10261;49.010;12.034;2022-11-03T03:29:38;13.05;;;6.90;;
20203;SDS011;10261;49.010;12.034;2022-11-03T03:30:44;12.77;;;6.63;;
20203;SDS011;10261;49.010;12.034;2022-11-03T03:31:50;10.55;;;6.72;;
20203;SDS011;10261;49.010;12.034;2022-11-03T03:32:55;10.95;;;6.43;;
20203;SDS011;10261;49.010;12.034;2022-11-03T03:34:01;7.32;;;5.35;;
20203;SDS011;10261;49.010;12.034;2022-11-03T03:35:25;10.60;;;6.95;;
20203;SDS011;10261;49.010;12.034;2022-11-03T03:36:30;11.98;;;6.60;;
20203;SDS011;10261;49.010;12.034;2022-11-03T03:37:34;10.10;;;6.53;;
20203;SDS011;10261;49.010;12.034;2022-11-03T03:38:42;13.43;;;6.30;;
20203;SDS011;10261;49.010;12.034;2022-11-03T03:39:48;9.32;;;6.32;;
20203;SDS011;10261;49.010;12.034;2022-11-03T03:40:55;8.88;;;5.78;;
20203;SDS011;10261;49.010;12.034;2022-11-03T03:42:00;11.55;;;5.55;;
20203;SDS011;10261;49.010;12.034;2022-11-03T03:43:04;10.20;;;5.70;;
20203;SDS011;10261;49.010;12.034;2022-11-03T03:44:10;9.85;;;5.70;;
20203;SDS011;10261;49.010;12.034;2022-11-03T03:45:14;11.80;;;6.05;;
20203;SDS011;10261;49.010;12.034;2022-11-03T03:46:17;9.35;;;6.07;;
20203;SDS011;10261;49.010;12.034;2022-11-03T03:47:23;11.00;;;6.10;;
20203;SDS011;10261;49.010;12.034;2022-11-03T03:48:29;8.70;;;5.43;;
20203;SDS011;10261;49.010;12.034;2022-11-03T03:49:32;12.07;;;7.00;;
20203;SDS011;10261;49.010;12.034;2022-11-03T03:50:34;14.02;;;6.28;;
20203;SDS011;10261;49.010;12.034;2022-11-03T03:51:39;9.70;;;6.45;;
20203;SDS011;10261;49.010;12.034;2022-11-03T03:52:42;13.05;;;6.30;;
20203;SDS011;10261;49.010;12.034;2022-11-03T03:53:48;8.88;;;5.47;;
20203;SDS011;10261;49.010;12.034;2022-11-03T03:54:50;9.07;;;5.72;;
20203;SDS011;10261;49.010;12.034;2022-11-03T03:55:53;9.88;;;6.00;;
20203;SDS011;10261;49.010;12.034;2022-11-03T03:56:58;8.88;;;6.28;;
20203;SDS011;10261;49.010;12.034;2022-11-03T03:58:02;11.15;;;5.95;;
20203;SDS011;10261;49.010;12.034;2022-11-03T03:59:05;8.93;;;5.63;;
20203;SDS011;10261;49.010;12.034;2022-11-03T04:00:11;9.02;;;6.38;;
20203;SDS011;10261;49.010;12.034;2022-11-03T04:01:16;8.15;;;6.05;;
20203;SDS011;10261;49.010;12.034;2022-11-03T04:02:19;10.38;;;6.68;;
20203;SDS011;10261;49.010;12.034;2022-11-03T04:03:22;10.30;;;5.70;;
20203;SDS011;10261;49.010;12.034;2022-11-03T04:04:26;11.32;;;6.70;;
20203;SDS011;10261;49.010;12.034;2022-11-03T04:05:28;9.05;;;5.95;;
20203;SDS011;10261;49.010;12.034;2022-11-03T04:06:31;10.13;;;5.85;;
20203;SDS011;10261;49.010;12.034;2022-11-03T04:07:33;9.13;;;6.20;;
20203;SDS011;10261;49.010;12.034;2022-11-03T04:08:48;8.80;;;5.82;;
20203;SDS011;10261;49.010;12.034;2022-11-03T04:09:50;11.30;;;6.43;;
20203;SDS011;10261;49.010;12.034;2022-11-03T04:10:53;8.45;;;5.30;;
20203;SDS011;10261;49.010;12.034;2022-11-03T04:12:13;9.15;;;6.32;;
20203;SDS011;10261;49.010;12.034;2022-11-03T04:13:34;9.02;;;5.25;;
20203;SDS011;10261;49.010;12.034;2022-11-03T04:14:54;8.77;;;5.43;;
20203;SDS011;10261;49.010;12.034;2022-11-03T04:16:16;13.32;;;7.03;;
20203;SDS011;10261;49.010;12.034;2022-11-03T04:17:37;8.60;;;5.50;;
20203;SDS011;10261;49.010;12.034;2022-11-03T04:19:00;7.50;;;6.22;;
20203;SDS011;10261;49.010;12.034;2022-11-03T04:20:21;15.35;;;6.82;;
20203;SDS011;10261;49.010;12.034;2022-11-03T04:21:42;8.52;;;5.60;;
20203;SDS011;10261;49.010;12.034;2022-11-03T04:23:02;10.98;;;6.25;;
20203;SDS011;10261;49.010;12.034;2022-11-03T04:24:05;11.60;;;6.50;;
20203;SDS011;10261;49.010;12.034;2022-11-03T04:25:07;9.35;;;5.80;;
20203;SDS011;10261;49.010;12.034;2022-11-03T04:26:12;10.43;;;6.28;;
20203;SDS011;10261;49.010;12.034;2022-11-03T04:27:20;10.35;;;5.53;;
20203;SDS011;10261;49.010;12.034;2022-11-03T04:28:31;11.13;;;7.10;;
20203;SDS011;10261;49.010;12.034;2022-11-03T04:29:33;13.52;;;6.15;;
20203;SDS011;10261;49.010;12.034;2022-11-03T04:30:36;7.05;;;5.90;;
20203;SDS011;10261;49.010;12.034;2022-11-03T04:31:40;10.40;;;6.20;;
20203;SDS011;10261;49.010;12.034;2022-11-03T04:32:44;8.75;;;5.78;;
20203;SDS011;10261;49.010;12.034;2022-11-03T04:33:47;7.65;;;6.10;;
20203;SDS011;10261;49.010;12.034;2022-11-03T04:34:50;11.85;;;6.85;;
20203;SDS011;10261;49.010;12.034;2022-11-03T04:35:53;8.35;;;5.13;;
20203;SDS011;10261;49.010;12.034;2022-11-03T04:36:59;11.63;;;6.18;;
20203;SDS011;10261;49.010;12.034;2022-11-03T04:38:02;11.85;;;5.90;;
20203;SDS011;10261;49.010;12.034;2022-11-03T04:39:21;7.38;;;5.65;;
20203;SDS011;10261;49.010;12.034;2022-11-03T04:40:24;13.55;;;5.75;;
20203;SDS011;10261;49.010;12.034;2022-11-03T04:41:28;8.80;;;6.13;;
20203;SDS011;10261;49.010;12.034;2022-11-03T04:42:34;8.77;;;6.40;;
20203;SDS011;10261;49.010;12.034;2022-11-03T04:43:36;9.95;;;5.88;;
20203;SDS011;10261;49.010;12.034;2022-11-03T04:44:40;5.72;;;4.72;;
20203;SDS011;10261;49.010;12.034;2022-11-03T04:45:42;9.43;;;6.68;;
20203;SDS011;10261;49.010;12.034;2022-11-03T04:46:47;7.72;;;5.50;;
20203;SDS011;10261;49.010;12.034;2022-11-03T04:47:49;8.30;;;5.55;;
20203;SDS011;10261;49.010;12.034;2022-11-03T04:48:54;6.97;;;5.45;;
20203;SDS011;10261;49.010;12.034;2022-11-03T04:49:59;7.68;;;5.63;;
20203;SDS011;10261;49.010;12.034;2022-11-03T04:51:05;10.50;;;5.57;;
20203;SDS011;10261;49.010;12.034;2022-11-03T04:52:15;6.93;;;5.20;;
20203;SDS011;10261;49.010;12.034;2022-11-03T04:53:19;8.43;;;5.60;;
20203;SDS011;10261;49.010;12.034;2022-11-03T04:54:23;6.82;;;5.40;;
20203;SDS011;10261;49.010;12.034;2022-11-03T04:55:25;6.10;;;5.50;;
20203;SDS011;10261;49.010;12.034;2022-11-03T04:56:28;9.15;;;5.28;;
20203;SDS011;10261;49.010;12.034;2022-11-03T04:57:30;7.72;;;5.50;;
20203;SDS011;10261;49.010;12.034;2022-11-03T04:58:34;7.80;;;5.47;;
20203;SDS011;10261;49.010;12.034;2022-11-03T04:59:36;8.90;;;6.32;;
20203;SDS011;10261;49.010;12.034;2022-11-03T05:00:39;6.07;;;5.07;;
20203;SDS011;10261;49.010;12.034;2022-11-03T05:01:41;8.32;;;6.05;;
20203;SDS011;10261;49.010;12.034;2022-11-03T05:02:48;6.78;;;4.93;;
20203;SDS011;10261;49.010;12.034;2022-11-03T05:03:56;6.97;;;5.88;;
20203;SDS011;10261;49.010;12.034;2022-11-03T05:04:59;7.22;;;5.70;;
20203;SDS011;10261;49.010;12.034;2022-11-03T05:06:07;5.13;;;4.60;;
20203;SDS011;10261;49.010;12.034;2022-11-03T05:07:19;7.10;;;5.00;;
20203;SDS011;10261;49.010;12.034;2022-11-03T05:08:24;8.30;;;5.75;;
20203;SDS011;10261;49.010;12.034;2022-11-03T05:09:27;6.80;;;5.10;;
20203;SDS011;10261;49.010;12.034;2022-11-03T05:10:31;5.45;;;4.53;;
20203;SDS011;10261;49.010;12.034;2022-11-03T05:11:34;6.18;;;4.60;;
20203;SDS011;10261;49.010;12.034;2022-11-03T05:12:39;5.45;;;4.78;;
20203;SDS011;10261;49.010;12.034;2022-11-03T05:13:41;6.13;;;4.88;;
20203;SDS011;10261;49.010;12.034;2022-11-03T05:14:44;7.65;;;4.60;;
20203;SDS011;10261;49.010;12.034;2022-11-03T05:15:46;6.97;;;5.20;;
20203;SDS011;10261;49.010;12.034;2022-11-03T05:16:51;8.30;;;5.20;;
20203;SDS011;10261;49.010;12.034;2022-11-03T05:17:56;8.48;;;5.55;;
20203;SDS011;10261;49.010;12.034;2022-11-03T05:19:02;8.75;;;6.00;;
20203;SDS011;10261;49.010;12.034;2022-11-03T05:20:04;8.05;;;6.18;;
20203;SDS011;10261;49.010;12.034;2022-11-03T05:21:25;10.20;;;7.15;;
20203;SDS011;10261;49.010;12.034;2022-11-03T05:22:30;9.43;;;6.47;;
20203;SDS011;10261;49.010;12.034;2022-11-03T05:23:36;9.23;;;6.75;;
20203;SDS011;10261;49.010;12.034;2022-11-03T05:24:41;7.13;;;5.25;;
20203;SDS011;10261;49.010;12.034;2022-11-03T05:25:43;6.78;;;5.55;;
20203;SDS011;10261;49.010;12.034;2022-11-03T05:26:48;6.18;;;5.00;;
20203;SDS011;10261;49.010;12.034;2022-11-03T05:27:50;6.78;;;5.28;;
20203;SDS011;10261;49.010;12.034;2022-11-03T05:28:54;6.93;;;5.70;;
20203;SDS011;10261;49.010;12.034;2022-11-03T05:30:00;9.82;;;5.40;;
20203;SDS011;10261;49.010;12.034;2022-11-03T05:31:11;7.65;;;5.63;;
20203;SDS011;10261;49.010;12.034;2022-11-03T05:32:20;5.25;;;4.70;;
20203;SDS011;10261;49.010;12.034;2022-11-03T05:33:28;7.90;;;5.47;;
20203;SDS011;10261;49.010;12.034;2022-11-03T05:34:34;9.35;;;6.22;;
20203;SDS011;10261;49.010;12.034;2022-11-03T05:35:38;5.32;;;4.50;;
20203;SDS011;10261;49.010;12.034;2022-11-03T05:36:40;7.20;;;5.38;;
20203;SDS011;10261;49.010;12.034;2022-11-03T05:37:43;6.38;;;4.85;;
20203;SDS011;10261;49.010;12.034;2022-11-03T05:38:45;6.78;;;5.50;;
20203;SDS011;10261;49.010;12.034;2022-11-03T05:39:48;6.75;;;4.90;;
20203;SDS011;10261;49.010;12.034;2022-11-03T05:40:52;5.40;;;4.22;;
20203;SDS011;10261;49.010;12.034;2022-11-03T05:41:56;5.05;;;4.50;;
20203;SDS011;10261;49.010;12.034;2022-11-03T05:42:59;6.32;;;5.22;;
20203;SDS011;10261;49.010;12.034;2022-11-03T05:44:08;4.43;;;4.00;;
20203;SDS011;10261;49.010;12.034;2022-11-03T05:45:25;5.55;;;4.25;;
20203;SDS011;10261;49.010;12.034;2022-11-03T05:46:32;4.50;;;3.67;;
20203;SDS011;10261;49.010;12.034;2022-11-03T05:47:37;5.20;;;3.97;;
20203;SDS011;10261;49.010;12.034;2022-11-03T05:48:41;5.43;;;4.57;;
20203;SDS011;10261;49.010;12.034;2022-11-03T05:49:45;5.72;;;4.05;;
20203;SDS011;10261;49.010;12.034;2022-11-03T05:50:47;7.32;;;4.45;;
20203;SDS011;10261;49.010;12.034;2022-11-03T05:51:50;4.57;;;4.15;;
20203;SDS011;10261;49.010;12.034;2022-11-03T05:52:53;5.63;;;4.50;;
20203;SDS011;10261;49.010;12.034;2022-11-03T05:53:58;5.97;;;4.30;;
20203;SDS011;10261;49.010;12.034;2022-11-03T05:55:03;5.38;;;4.13;;
20203;SDS011;10261;49.010;12.034;2022-11-03T05:56:09;4.65;;;4.15;;
20203;SDS011;10261;49.010;12.034;2022-11-03T05:57:17;4.75;;;4.10;;
20203;SDS011;10261;49.010;12.034;2022-11-03T05:58:21;5.53;;;4.25;;
20203;SDS011;10261;49.010;12.034;2022-11-03T05:59:27;5.82;;;4.43;;
20203;SDS011;10261;49.010;12.034;2022-11-03T06:00:30;4.85;;;3.95;;
20203;SDS011;10261;49.010;12.034;2022-11-03T06:01:34;4.18;;;3.50;;
20203;SDS011;10261;49.010;12.034;2022-11-03T06:02:40;5.00;;;4.00;;
20203;SDS011;10261;49.010;12.034;2022-11-03T06:03:44;4.70;;;4.30;;
20203;SDS011;10261;49.010;12.034;2022-11-03T06:04:48;4.82;;;3.90;;
20203;SDS011;10261;49.010;12.034;2022-11-03T06:05:50;4.88;;;4.38;;
20203;SDS011;10261;49.010;12.034;2022-11-03T06:06:54;5.82;;;3.90;;
20203;SDS011;10261;49.010;12.034;2022-11-03T06:08:00;4.45;;;3.85;;
20203;SDS011;10261;49.010;12.034;2022-11-03T06:09:08;5.93;;;4.45;;
20203;SDS011;10261;49.010;12.034;2022-11-03T06:10:20;4.75;;;4.25;;
20203;SDS011;10261;49.010;12.034;2022-11-03T06:11:27;4.80;;;3.78;;
20203;SDS011;10261;49.010;12.034;2022-11-03T06:12:33;4.90;;;4.25;;
20203;SDS011;10261;49.010;12.034;2022-11-03T06:13:36;5.00;;;4.40;;
20203;SDS011;10261;49.010;12.034;2022-11-03T06:14:40;5.60;;;4.20;;
20203;SDS011;10261;49.010;12.034;2022-11-03T06:15:42;5.13;;;3.75;;
20203;SDS011;10261;49.010;12.034;2022-11-03T06:16:47;5.35;;;3.80;;
20203;SDS011;10261;49.010;12.034;2022-11-03T06:17:52;5.72;;;4.15;;
20203;SDS011;10261;49.010;12.034;2022-11-03T06:18:56;5.63;;;4.18;;
20203;SDS011;10261;49.010;12.034;2022-11-03T06:20:02;9.90;;;4.40;;
20203;SDS011;10261;49.010;12.034;2022-11-03T06:21:18;10.43;;;5.00;;
20203;SDS011;10261;49.010;12.034;2022-11-03T06:22:25;6.30;;;4.63;;
20203;SDS011;10261;49.010;12.034;2022-11-03T06:23:30;5.07;;;4.60;;
20203;SDS011;10261;49.010;12.034;2022-11-03T06:24:34;9.60;;;6.13;;
20203;SDS011;10261;49.010;12.034;2022-11-03T06:25:37;8.80;;;5.20;;
20203;SDS011;10261;49.010;12.034;2022-11-03T06:26:42;6.40;;;4.47;;
20203;SDS011;10261;49.010;12.034;2022-11-03T06:27:46;5.63;;;4.38;;